Wednesday, July 1, 2015, 12:39 PM EDT
Back to Local

KMPO, Mt Pocono Pocono Mountains

Location: Pocono Summit, PA, United States Lat: 41.133
Local Time: 12:39 PM EDT (16:39 GMT) Lon: -75.383
Time Zone: US/Eastern Elev: 1915 ft

Show me the last for .
Show Decoded

2015-07-01 11:53 METAR KMPO 011553Z AUTO 29009G17KT 8SM BKN021 OVC027 19/14 A2986 RMK AO2 SLP102
                 T01890144 =
2015-07-01 11:16 METAR KMPO 011516Z AUTO 28011G19KT 7SM SCT015 BKN021 BKN028 19/14 A2985 RMK AO2
                 T01940144 =
2015-07-01 10:53 METAR KMPO 011453Z AUTO 28011KT 7SM BKN014 18/14 A2984 RMK AO2 SLP099 T01830144
                 51008 =
2015-07-01 09:53 METAR KMPO 011353Z AUTO 26013G17KT 8SM OVC012 17/15 A2984 RMK AO2 SLP098
                 T01720150 =
2015-07-01 09:18 METAR KMPO 011318Z AUTO 28009KT 8SM BKN010 BKN014 17/14 A2984 RMK AO2 CIG
                 006V013 T01670144 =
2015-07-01 07:58 METAR KMPO 011158Z AUTO 29010KT 7SM SCT008 SCT015 17/15 A2982 RMK AO2 T01670150
                 =
2015-07-01 07:53 METAR KMPO 011153Z AUTO 29010KT 6SM BR SCT008 BKN011 BKN015 17/15 A2982 RMK AO2
                 SLP090 60044 70343 T01670150 10183 20167 55001 =
2015-07-01 06:53 METAR KMPO 011053Z AUTO 29009KT 5SM BR BKN005 17/16 A2980 RMK AO2 RAB03E12 CIG
                 003V009 SLP085 P0001 T01720156 =
2015-07-01 06:35 METAR KMPO 011035Z AUTO 27010G17KT 5SM BR BKN006 OVC110 17/16 A2980 RMK AO2
                 RAB03E12 P0001 T01720156 $ =
2015-07-01 05:53 METAR KMPO 010953Z AUTO 28007KT 7SM SCT005 BKN044 OVC110 17/16 A2979 RMK AO2
                 RAE50 SLP081 P0003 T01720161 $ =
2015-07-01 05:15 METAR KMPO 010915Z AUTO 27007KT 4SM -RA BR OVC006 18/16 A2981 RMK AO2 CIG
                 003V009 P0002 T01780161 $ =
2015-07-01 04:53 METAR KMPO 010853Z AUTO 25006KT 7SM -RA BKN007 BKN015 OVC045 18/16 A2982 RMK AO2
                 RAEMMB37 SLP090 P0003 60040 T01780161 58004 $ =
2015-07-01 04:45 METAR KMPO 010845Z AUTO 23004KT 5SM -RA BR SCT007 BKN015 OVC060 18/16 A2982 RMK
                 AO2 RAEMMB37 P0003 T01780161 $ =
2015-07-01 03:53 METAR KMPO 010753Z AUTO 25007KT 8SM -RA OVC100 18/16 A2984 RMK AO2 LTG DSNT SW-N
                 RAE0659B12 SLP095 P0001 T01830161 $ =
2015-07-01 03:03 METAR KMPO 010703Z AUTO 22004KT 9SM OVC100 17/16 A2983 RMK AO2 LTG DSNT ALQDS
                 RAE0659 P0000 T01720156 $ =
2015-07-01 02:53 METAR KMPO 010653Z AUTO 00000KT 8SM VCTS -RA FEW065 BKN090 OVC100 17/16 A2984
                 RMK AO2 LTG DSNT NE AND E RAEMMB28 TSB02E41 SLP097 P0036 T01720156 $ =
2015-07-01 02:32 METAR KMPO 010632Z AUTO 28005KT 4SM TSRA 18/15 A2984 RMK AO2 LTG DSNT NE AND W
                 RAEMMB28 TSB02 P0034 T01780150 $ =
2015-07-01 02:24 METAR KMPO 010624Z AUTO 2SM TS BR 17/15 A2984 RMK AO2 LTG DSNT W-NE RAEMM TSB02
                 P0032 T01670150 PWINO $ =
2015-07-01 02:10 METAR KMPO 010610Z AUTO 27013G18KT 1 1/2SM +TSRA BR SCT006 OVC009 18/17 A2986
                 RMK AO2 LTG DSNT ALQDS TSB02 P0016 T01780167 =
2015-07-01 02:03 METAR KMPO 010603Z AUTO VRB05KT 3SM -TSRA BR OVC003 18/17 A2985 RMK AO2 LTG DSNT
                 ALQDS TSB02 P0001 T01830172 =
2015-07-01 02:01 METAR KMPO 010601Z AUTO 30005KT 2SM VCTS -RA BR OVC003 18/17 A2985 RMK AO2 LTG
                 DSNT ALQDS P0000 T01830172 =
2015-07-01 01:31 METAR KMPO 010531Z AUTO 00000KT 3/4SM VCTS BR VV002 18/18 A2985 RMK AO2 LTG DSNT
                 SW-N T01830178 =
2015-07-01 01:25 METAR KMPO 010525Z AUTO 00000KT 2 1/2SM VCTS BR OVC002 18/17 A2985 RMK AO2 LTG
                 DSNT SW-N T01830172 =
2015-07-01 01:19 METAR KMPO 010519Z AUTO 00000KT 1/2SM VCTS FG VV002 18/17 A2986 RMK AO2 LTG DSNT
                 SW-N T01830172 =
2015-07-01 01:12 METAR KMPO 010512Z AUTO 00000KT 1/4SM FG VV002 18/17 A2985 RMK AO2 LTG DSNT SW-N
                 T01830172 =
2015-06-30 23:53 METAR KMPO 010353Z AUTO 14006KT 2 1/2SM BR OVC002 18/17 A2988 RMK AO2 LTG DSNT
                 NW-E RAE02 SLP110 P0000 T01830167 =
2015-06-30 23:03 METAR KMPO 010303Z AUTO 17005KT 9SM BKN004 BKN009 OVC014 18/17 A2990 RMK AO2 LTG
                 DSNT W AND NW RAE02 P0000 T01780167 =
2015-06-30 22:53 METAR KMPO 010253Z AUTO 15003KT 3SM RA BR BKN007 BKN013 OVC019 17/16 A2989 RMK
                 AO2 LTG DSNT NE AND E AND W RAB37 SLP117 P0015 60033 T01720161 53001 =
2015-06-30 22:48 METAR KMPO 010248Z AUTO 00000KT 2SM RA BR BKN007 BKN013 BKN019 18/16 A2989 RMK
                 AO2 LTG DSNT NE AND E AND W RAB37 P0014 =
2015-06-30 22:44 METAR KMPO 010244Z AUTO 10005KT 2 1/2SM +RA BR SCT009 BKN015 BKN019 17/16 A2989
                 RMK AO2 LTG DSNT E RAB37 P0012 T01720161 =
2015-06-30 21:40 METAR KMPO 010140Z AUTO 10006KT 4SM BR BKN002 OVC014 17/16 A2989 RMK AO2 LTG
                 DSNT E AND W T01720161 =
2015-06-30 21:34 METAR KMPO 010134Z AUTO 11007KT 1 1/4SM BR BKN002 OVC016 17/16 A2989 RMK AO2 VIS
                 3/4V5 LTG DSNT E AND W T01720161 =
2015-06-30 21:22 METAR KMPO 010122Z AUTO 11005KT 1/2SM FG BKN001 BKN020 17/16 A2989 RMK AO2 LTG
                 DSNT SE T01720161 =
2015-06-30 21:14 METAR KMPO 010114Z AUTO 11005KT 3/4SM BR SCT001 BKN020 BKN026 17/16 A2989 RMK
                 AO2 LTG DSNT SE T01720161 =
2015-06-30 21:10 METAR KMPO 010110Z AUTO 11006KT 2 1/2SM BR SCT001 BKN022 BKN028 17/16 A2989 RMK
                 AO2 LTG DSNT SE T01720161 =
2015-06-30 20:53 METAR KMPO 010053Z AUTO 13007KT 10SM SCT021 BKN026 BKN065 18/16 A2989 RMK AO2
                 LTG DSNT SW RAE40 SLP116 P0018 T01780161 =
2015-06-30 20:34 METAR KMPO 010034Z AUTO 12003KT 3SM -RA BR SCT031 BKN070 OVC100 18/16 A2989 RMK
                 AO2 P0018 T01780161 =
2015-06-30 20:17 METAR KMPO 010017Z AUTO 11006KT 1 1/4SM +RA BR FEW002 BKN032 OVC070 17/16 A2990
                 RMK AO2 P0011 T01720161 =
2015-06-30 20:13 METAR KMPO 010013Z AUTO 12007KT 2SM +RA BR FEW002 BKN027 OVC070 17/16 A2990 RMK
                 AO2 P0007 T01720161 =
2015-06-30 19:53 METAR KMPO 302353Z AUTO 07006KT 9SM -RA FEW004 BKN070 OVC090 18/16 A2990 RMK AO2
                 LTG DSNT NE AND E SLP117 P0008 60194 T01780161 10194 20167 56006 =
2015-06-30 19:36 METAR KMPO 302336Z AUTO 08008KT 3SM -RA BR FEW006 BKN043 OVC100 17/16 A2990 RMK
                 AO2 LTG DSNT E P0008 T01720161 =
2015-06-30 19:12 METAR KMPO 302312Z AUTO 10010KT 6SM VCTS -RA BR FEW055 SCT075 OVC100 18/16 A2990
                 RMK AO2 LTG DSNT NE P0002 T01780156 =
2015-06-30 18:53 METAR KMPO 302253Z AUTO 08011KT 4SM -RA BR FEW022 BKN070 OVC095 17/16 A2990 RMK
                 AO2 LTG DSNT NE-S TSB35E50 SLP118 P0114 T01720156 =
2015-06-30 18:50 METAR KMPO 302250Z AUTO 09007KT 3SM VCTS -RA BR SCT022 BKN039 OVC100 18/16 A2990
                 RMK AO2 LTG DSNT NE-S TSB35E50 P0113 =
2015-06-30 18:47 METAR KMPO 302247Z AUTO 08010KT 2 1/2SM TSRA BR SCT024 BKN039 OVC100 17/16 A2990
                 RMK AO2 LTG DSNT ALQDS TSB35 P0112 =
2015-06-30 18:44 METAR KMPO 302244Z AUTO 09008KT 1 3/4SM TSRA BR BKN024 BKN039 OVC100 17/16 A2990
                 RMK AO2 LTG DSNT E AND SW TSB35 P0112 T01720161 =
2015-06-30 18:35 METAR KMPO 302235Z AUTO 09006KT 1/2SM +TSRA FG BKN020 OVC037 17/16 A2990 RMK AO2
                 LTG DSNT E-SW TSB35 P0107 T01720161 =
2015-06-30 18:12 METAR KMPO 302212Z AUTO 00000KT 1/2SM +RA FG BKN022 OVC090 17/16 A2991 RMK AO2
                 LTG DSNT NE AND S AND SW P0047 T01670156 =
2015-06-30 18:04 METAR KMPO 302204Z AUTO 16004KT 1/2SM VCTS +RA FG BKN024 BKN038 OVC090 17/16
                 A2990 RMK AO2 LTG DSNT NE AND S AND SW P0030 T01720156 =
2015-06-30 17:53 METAR KMPO 302153Z AUTO 14012G19KT 3/4SM VCTS +RA BR SCT032 BKN070 OVC090 17/16
                 A2991 RMK AO2 LTG DSNT NE AND SW TSB08E52 SLP121 P0055 T01720161 =
2015-06-30 17:41 METAR KMPO 302141Z AUTO 10005KT 3/4SM +TSRA BR BKN034 BKN048 OVC070 18/17 A2989
                 RMK AO2 LTG DSNT NE AND SW TSB08 P0033 T01780167 =
2015-06-30 17:34 METAR KMPO 302134Z AUTO 16004KT 2SM TSRA BR FEW024 BKN060 OVC090 18/17 A2990 RMK
                 AO2 LTG DSNT SW TSB08 P0020 T01780167 =
2015-06-30 17:24 METAR KMPO 302124Z AUTO 11007KT 1 1/2SM TSRA BR FEW003 BKN035 OVC095 18/17 A2990
                 RMK AO2 LTG DSNT E AND SW TSB08 P0016 T01780167 =
2015-06-30 17:17 METAR KMPO 302117Z AUTO 12007KT 2SM TSRA BR SCT003 BKN033 OVC070 18/17 A2991 RMK
                 AO2 LTG DSNT E AND SW TSB08 P0012 T01780167 =
2015-06-30 17:10 METAR KMPO 302110Z AUTO 11006KT 1 3/4SM -TSRA BR SCT003 OVC035 18/17 A2991 RMK
                 AO2 LTG DSNT E AND SW TSB08 P0008 T01830167 =
2015-06-30 17:02 METAR KMPO 302102Z AUTO 11006KT 1 1/2SM VCTS +RA BR BKN004 BKN022 OVC046 18/17
                 A2990 RMK AO2 LTG DSNT E AND SW P0006 T01830167 =
2015-06-30 16:51 METAR KMPO 302051Z AUTO 13008KT 1 3/4SM RA BR BKN004 BKN034 OVC045 18/17 A2992
                 RMK AO2 LTG DSNT SW SLP124 P0007 60017 T01830172 56011 =
2015-06-30 16:50 METAR KMPO 302050Z AUTO 14007KT 1 3/4SM -RA BR BKN002 BKN036 OVC048 18/17 A2992
                 RMK AO2 LTG DSNT SW P0007 =
2015-06-30 16:44 METAR KMPO 302044Z AUTO 11008KT 1 3/4SM -RA BR SCT002 BKN019 OVC048 18/17 A2991
                 RMK AO2 LTG DSNT SW P0006 T01830172 =
2015-06-30 16:29 METAR KMPO 302029Z AUTO 11005KT 2SM VCTS -RA BR BKN002 OVC012 18/17 A2992 RMK
                 AO2 LTG DSNT SE AND SW AND NW P0003 T01830172 =
2015-06-30 15:53 METAR KMPO 301953Z AUTO 13006KT 1 3/4SM RA BR BKN002 BKN040 OVC065 18/17 A2993
                 RMK AO2 LTG DSNT ALQDS SLP127 P0008 T01830172 =
2015-06-30 15:48 METAR KMPO 301948Z AUTO 15006KT 2 1/2SM -RA BR BKN006 BKN040 OVC080 18/17 A2993
                 RMK AO2 LTG DSNT ALQDS P0006 =
2015-06-30 15:26 METAR KMPO 301926Z AUTO 17011KT 3SM -RA BR SCT018 BKN031 OVC085 19/17 A2992 RMK
                 AO2 LTG DSNT SE-SW P0005 T01890167 =
2015-06-30 15:18 METAR KMPO 301918Z AUTO 13005KT 2 1/2SM RA BR SCT018 BKN027 OVC090 18/17 A2993
                 RMK AO2 VIS 1 1/2V4 LTG DSNT SE-SW P0003 T01830167 =
2015-06-30 14:53 METAR KMPO 301853Z AUTO 11005KT 4SM -RA BR FEW030 BKN039 OVC090 18/17 A2993 RMK
                 AO2 LTG DSNT SE AND S RAE22B46 SLP131 P0002 T01830167 =
2015-06-30 14:19 METAR KMPO 301819Z AUTO 10004KT 4SM -RA BR FEW050 FEW075 OVC100 18/17 A2993 RMK
                 AO2 LTG DSNT S AND SW P0002 T01830167 =
2015-06-30 14:04 METAR KMPO 301804Z AUTO 13005KT 2 1/2SM -RA BR FEW007 BKN075 OVC095 18/17 A2994
                 RMK AO2 P0001 T01780167 =
2015-06-30 13:55 METAR KMPO 301755Z AUTO 12005KT 2 1/2SM -RA BR SCT008 BKN024 OVC100 18/16 A2995
                 RMK AO2 LTG DSNT S P0000 T01830161 =
2015-06-30 13:53 METAR KMPO 301753Z AUTO 13006KT 3SM -RA BR BKN008 BKN024 OVC095 18/16 A2995 RMK
                 AO2 LTG DSNT S RAB41 SLP137 P0002 60062 T01830161 10189 20156 56010 =
2015-06-30 13:51 METAR KMPO 301751Z AUTO 14005KT 3SM -RA BR BKN008 BKN024 OVC075 18/16 A2995 RMK
                 AO2 LTG DSNT S RAB41 P0002 =
2015-06-30 12:53 METAR KMPO 301653Z AUTO 13004KT 6SM BR OVC014 18/16 A2997 RMK AO2 RAE21 SLP142
                 P0001 T01780156 =

Support USWX by starting your Amazon purchase here.